Time;durP1;ratioP1;P1;durP2;ratioP2;P2;SDS_P1;SDS_P2;PMS_P1;PMS_P2;Temp;Humidity;BMP_temperature;BMP_pressure;BME280_temperature;BME280_humidity;BME280_pressure;Samples;Min_cycle;Max_cycle;Signal;HPM_P1;HPM_P2
2022/05/12 00:00:50;;;;;;;8.57;5.88;;;;;;;17.85;49.09;99902.13;5033720;28;20087;-87
2022/05/12 00:03:17;;;;;;;10.27;6.45;;;;;;;17.89;48.98;99930.03;5033740;28;20104;-86
2022/05/12 00:05:43;;;;;;;7.40;6.28;;;;;;;17.72;49.17;99913.69;5033827;28;20166;-86
2022/05/12 00:08:09;;;;;;;7.47;6.13;;;;;;;18.33;49.09;99991.38;5033615;28;20067;-86
2022/05/12 00:10:35;;;;;;;7.72;6.43;;;;;;;17.44;49.15;99852.63;5033558;28;20029;-87
2022/05/12 00:13:02;;;;;;;9.27;6.60;;;;;;;18.18;49.36;99957.97;5033751;28;20108;-87
2022/05/12 00:15:31;;;;;;;9.65;6.63;;;;;;;18.07;49.11;99932.78;5034200;28;20116;-87
2022/05/12 00:17:57;;;;;;;8.18;6.68;;;;;;;17.65;49.34;99897.66;5032949;28;20547;-86
2022/05/12 00:20:23;;;;;;;9.05;7.05;;;;;;;18.36;49.08;99988.28;5034020;28;20060;-87
2022/05/12 00:22:49;;;;;;;10.43;6.90;;;;;;;18.25;49.23;99967.59;5033513;28;20501;-86
2022/05/12 00:25:18;;;;;;;9.35;6.43;;;;;;;18.37;49.41;99992.56;5033997;28;20053;-86
2022/05/12 00:27:44;;;;;;;8.68;5.97;;;;;;;18.39;49.29;99990.50;5052091;28;20056;-87
2022/05/12 00:30:11;;;;;;;7.53;6.38;;;;;;;18.41;49.19;99977.75;5033896;28;20485;-86
2022/05/12 00:32:43;;;;;;;7.88;6.28;;;;;;;18.41;49.33;99980.41;5033901;28;20099;-87
2022/05/12 00:35:10;;;;;;;6.85;5.85;;;;;;;18.35;49.50;99985.81;5051933;28;20025;-87
2022/05/12 00:37:36;;;;;;;7.95;6.82;;;;;;;17.38;49.51;99846.28;5051349;28;20040;-87
2022/05/12 00:40:01;;;;;;;7.78;6.07;;;;;;;17.11;49.63;99794.94;5051376;28;20426;-87
2022/05/12 00:42:27;;;;;;;8.98;5.85;;;;;;;17.17;49.62;99827.13;5051788;28;20043;-86
2022/05/12 00:44:52;;;;;;;7.05;6.05;;;;;;;17.71;49.59;99912.03;5033940;28;20036;-87
2022/05/12 00:47:18;;;;;;;9.13;6.70;;;;;;;16.83;49.63;99755.25;5051855;28;20104;-86
2022/05/12 00:49:47;;;;;;;8.85;5.93;;;;;;;17.34;49.64;99833.59;5033736;28;20474;-86
2022/05/12 00:52:16;;;;;;;7.93;6.68;;;;;;;17.39;49.57;99852.44;5051430;28;20512;-87
2022/05/12 00:54:45;;;;;;;8.00;6.32;;;;;;;17.82;49.49;99932.72;5051701;28;20037;-86
2022/05/12 00:57:17;;;;;;;8.38;6.40;;;;;;;17.57;49.48;99905.13;5051770;28;20025;-86
2022/05/12 00:59:43;;;;;;;8.88;6.10;;;;;;;16.96;49.37;99818.38;5033694;28;20535;-86
2022/05/12 01:02:15;;;;;;;7.15;6.45;;;;;;;16.46;49.72;99767.50;5051189;28;20047;-86
2022/05/12 01:04:43;;;;;;;7.47;6.72;;;;;;;17.55;49.64;99965.91;5051606;28;20025;-87
2022/05/12 01:07:08;;;;;;;7.97;6.80;;;;;;;17.61;49.79;99994.44;5051832;28;20044;-87
2022/05/12 01:09:34;;;;;;;8.15;7.28;;;;;;;17.08;49.63;99926.06;5033548;28;20037;-86
2022/05/12 01:12:01;;;;;;;8.27;6.32;;;;;;;16.55;49.87;99850.72;5033404;28;20078;-87
2022/05/12 01:14:26;;;;;;;9.55;7.30;;;;;;;16.81;49.82;99888.00;5051229;28;20111;-86
2022/05/12 01:17:00;;;;;;;8.43;7.22;;;;;;;17.36;49.99;99994.34;5051719;28;20093;-87
2022/05/12 01:19:29;;;;;;;7.50;6.60;;;;;;;17.32;50.15;99998.47;5033792;28;20017;-87
2022/05/12 01:21:56;;;;;;;9.30;6.88;;;;;;;16.49;50.51;99868.34;5056997;28;20417;-86
2022/05/12 01:24:25;;;;;;;7.78;6.47;;;;;;;16.87;50.53;99933.50;5063185;28;20502;-85
2022/05/12 01:26:51;;;;;;;7.20;6.50;;;;;;;16.59;50.66;99910.56;5063284;28;20027;-85
2022/05/12 01:29:17;;;;;;;10.73;6.32;;;;;;;15.95;50.71;99810.00;5070294;28;20028;-87
2022/05/12 01:31:43;;;;;;;6.85;5.97;;;;;;;16.66;51.28;99935.41;5057990;28;20036;-87
2022/05/12 01:34:11;;;;;;;8.40;6.38;;;;;;;15.77;51.13;99807.97;5037965;28;20028;-87
2022/05/12 01:36:37;;;;;;;7.18;6.45;;;;;;;16.51;51.42;99927.59;5055194;28;20036;-87
2022/05/12 01:39:05;;;;;;;10.57;6.55;;;;;;;17.03;51.34;99991.75;5037237;28;20064;-87
2022/05/12 01:41:30;;;;;;;7.97;6.78;;;;;;;17.01;51.26;100012.47;5036654;28;20080;-87
2022/05/12 01:43:56;;;;;;;7.28;6.45;;;;;;;15.89;51.75;99822.28;5054700;28;20178;-87
2022/05/12 01:46:22;;;;;;;9.23;5.97;;;;;;;16.78;51.49;99972.91;5054802;28;20167;-87
2022/05/12 01:48:47;;;;;;;7.75;6.18;;;;;;;16.78;51.43;99970.25;5055211;28;20071;-87
2022/05/12 01:51:13;;;;;;;6.82;6.20;;;;;;;15.02;51.28;99718.63;5036735;28;20021;-86
2022/05/12 01:53:39;;;;;;;8.80;6.22;;;;;;;15.75;51.35;99801.22;5054289;28;20023;-87
2022/05/12 01:56:05;;;;;;;11.48;6.43;;;;;;;16.33;51.34;99899.94;5036466;28;20025;-87
2022/05/12 01:58:31;;;;;;;8.57;6.68;;;;;;;16.84;51.51;99990.75;5054010;28;20017;-86
2022/05/12 02:00:57;;;;;;;6.93;6.22;;;;;;;16.85;51.32;99995.06;5054160;28;20504;-86
2022/05/12 02:03:23;;;;;;;7.88;6.03;;;;;;;16.80;51.56;100002.88;5036366;28;20032;-86
2022/05/12 02:05:48;;;;;;;8.80;5.90;;;;;;;15.47;51.47;99807.47;5053978;28;20027;-87
2022/05/12 02:08:16;;;;;;;9.15;6.13;;;;;;;16.00;51.23;99930.06;5053662;28;20020;-87
2022/05/12 02:10:45;;;;;;;6.50;5.78;;;;;;;16.53;51.55;100002.84;5035794;28;20039;-87
2022/05/12 02:13:11;;;;;;;7.13;5.93;;;;;;;15.31;51.52;99838.97;5044454;28;20041;-86
2022/05/12 02:15:38;;;;;;;7.68;5.65;;;;;;;15.69;51.92;99898.69;5054261;28;20028;-86
2022/05/12 02:18:05;;;;;;;6.75;6.13;;;;;;;16.33;51.67;100027.81;5071229;28;20032;-87
2022/05/12 02:20:30;;;;;;;6.75;5.88;;;;;;;14.81;51.57;99772.75;5052524;28;20084;-86
2022/05/12 02:22:55;;;;;;;7.90;5.38;;;;;;;16.15;51.63;99996.44;5042470;28;20509;-87
2022/05/12 02:25:21;;;;;;;8.73;5.82;;;;;;;15.62;51.64;99911.16;5054911;28;20029;-87
2022/05/12 02:27:47;;;;;;;7.05;5.97;;;;;;;15.26;51.97;99863.53;5054668;28;20021;-86
2022/05/12 02:30:19;;;;;;;9.23;6.57;;;;;;;16.18;51.71;100007.53;5054587;28;20025;-87
2022/05/12 02:32:45;;;;;;;9.10;6.57;;;;;;;16.13;51.72;100028.63;5054070;28;20031;-87
2022/05/12 02:35:11;;;;;;;7.50;5.82;;;;;;;15.48;51.96;99925.38;5053405;28;20115;-86
2022/05/12 02:37:37;;;;;;;7.45;6.63;;;;;;;14.62;51.82;99786.78;5035808;28;20051;-87
2022/05/12 02:40:02;;;;;;;8.77;6.00;;;;;;;15.25;51.92;99901.78;5052523;28;20048;-87
2022/05/12 02:42:28;;;;;;;8.82;7.03;;;;;;;15.49;52.27;99954.47;5053341;28;20017;-87
2022/05/12 02:44:53;;;;;;;8.93;6.47;;;;;;;15.18;52.10;99899.09;5035571;28;20409;-87
2022/05/12 02:47:19;;;;;;;8.82;6.90;;;;;;;15.10;52.09;99890.47;5035389;28;20021;-87
2022/05/12 02:49:45;;;;;;;8.80;6.20;;;;;;;15.21;51.90;99911.19;5052946;28;20029;-87
2022/05/12 02:52:10;;;;;;;8.63;5.97;;;;;;;14.57;52.21;99834.38;5035558;28;20020;-87
2022/05/12 02:54:36;;;;;;;7.07;6.38;;;;;;;15.83;52.35;100029.97;5035256;28;20578;-86
2022/05/12 02:57:03;;;;;;;6.43;5.82;;;;;;;15.44;52.45;99970.22;5052629;28;20013;-87
2022/05/12 02:59:28;;;;;;;9.35;5.93;;;;;;;15.84;52.23;100037.78;5034699;28;20021;-87
2022/05/12 03:01:54;;;;;;;8.85;6.07;;;;;;;14.99;52.09;99891.03;5052485;28;20028;-87
2022/05/12 03:04:20;;;;;;;7.03;6.32;;;;;;;15.20;52.15;99938.81;5034605;28;20025;-87
2022/05/12 03:06:45;;;;;;;7.20;6.53;;;;;;;15.43;52.41;99976.53;5052851;28;20021;-86
2022/05/12 03:09:12;;;;;;;6.35;5.78;;;;;;;15.78;52.26;100038.56;5052492;28;20025;-87
2022/05/12 03:11:37;;;;;;;8.32;6.35;;;;;;;14.94;52.16;99912.91;5052723;28;20114;-87
2022/05/12 03:14:03;;;;;;;7.80;5.90;;;;;;;15.77;52.23;100044.09;5034610;28;20021;-87
2022/05/12 03:16:29;;;;;;;9.13;6.35;;;;;;;15.57;52.42;100017.34;5052207;28;20098;-87
2022/05/12 03:18:54;;;;;;;10.40;6.20;;;;;;;14.59;52.51;99874.88;5052200;28;20021;-86
2022/05/12 03:21:21;;;;;;;9.35;6.90;;;;;;;14.46;52.47;99848.22;5052386;28;20044;-86
2022/05/12 03:23:47;;;;;;;10.15;5.93;;;;;;;14.43;52.28;99841.47;5034284;28;20025;-87
2022/05/12 03:26:13;;;;;;;8.43;6.32;;;;;;;14.38;52.33;99841.19;5034204;28;20029;-87
2022/05/12 03:28:39;;;;;;;9.48;6.63;;;;;;;14.94;52.42;99935.00;5052594;28;20024;-87
2022/05/12 03:31:04;;;;;;;15.98;9.35;;;;;;;15.67;52.55;100057.78;5052518;28;20572;-87
2022/05/12 03:33:31;;;;;;;13.32;9.10;;;;;;;15.58;52.49;100048.28;5034357;28;20108;-87
2022/05/12 03:35:58;;;;;;;10.40;7.72;;;;;;;15.48;52.58;100045.13;5052038;28;20025;-87
2022/05/12 03:38:23;;;;;;;8.98;7.00;;;;;;;14.98;52.34;99974.50;5033958;28;20480;-87
2022/05/12 03:40:49;;;;;;;7.15;6.38;;;;;;;15.23;52.50;100035.00;5052217;28;20021;-87
2022/05/12 03:45:59;;;;;;;8.95;6.50;;;;;;;14.70;52.39;99942.59;5052095;28;20027;-86
2022/05/12 03:48:25;;;;;;;9.13;6.93;;;;;;;15.35;52.60;100035.25;5051956;28;20048;-87
2022/05/12 03:50:50;;;;;;;7.85;6.97;;;;;;;14.76;52.42;99932.00;5052160;28;20021;-87
2022/05/12 03:53:15;;;;;;;9.05;6.72;;;;;;;15.25;52.47;100040.13;5052758;28;20028;-87
2022/05/12 03:55:41;;;;;;;10.15;6.90;;;;;;;15.62;52.18;100075.38;5052338;28;20028;-87
2022/05/12 03:58:06;;;;;;;9.27;7.57;;;;;;;15.24;52.28;100004.72;5052153;28;20025;-87
2022/05/12 04:00:33;;;;;;;9.63;7.30;;;;;;;15.06;51.79;99969.00;5052133;28;20505;-86
2022/05/12 04:02:59;;;;;;;10.50;6.78;;;;;;;14.94;52.17;99948.28;5051815;28;20025;-86
2022/05/12 04:05:27;;;;;;;7.55;6.85;;;;;;;14.89;51.62;99918.81;5051972;28;20023;-87
2022/05/12 04:07:53;;;;;;;12.77;7.60;;;;;;;15.41;51.62;99991.88;5033966;28;20497;-87
2022/05/12 04:10:20;;;;;;;7.45;6.75;;;;;;;16.02;51.45;100087.81;5051711;28;20028;-87
2022/05/12 04:12:46;;;;;;;7.13;6.43;;;;;;;15.00;51.96;99936.06;5051856;28;20021;-86
2022/05/12 04:15:12;;;;;;;8.27;6.82;;;;;;;15.40;51.70;99989.44;5051530;28;20082;-86
2022/05/12 04:17:38;;;;;;;9.98;7.65;;;;;;;15.47;52.01;100004.41;5051373;28;20394;-86
2022/05/12 04:20:06;;;;;;;9.43;7.88;;;;;;;16.04;52.05;100085.78;5051467;28;20044;-86
2022/05/12 04:22:32;;;;;;;12.32;7.70;;;;;;;15.04;51.76;99942.63;5033373;28;20039;-87
2022/05/12 04:24:58;;;;;;;13.63;7.97;;;;;;;16.13;51.60;100091.75;5033541;28;20021;-88
2022/05/12 04:27:23;;;;;;;8.88;7.10;;;;;;;15.70;51.61;100030.75;5033375;28;20111;-87
2022/05/12 04:29:48;;;;;;;8.98;7.07;;;;;;;15.48;51.77;99989.25;5051246;28;20074;-87
2022/05/12 04:32:14;;;;;;;10.10;7.68;;;;;;;15.78;51.68;100049.22;5033536;28;20020;-86
2022/05/12 04:37:32;;;;;;;13.52;7.93;;;;;;;16.17;51.84;100085.81;5051106;28;20060;-86
2022/05/12 04:40:26;;;;;;;9.43;7.47;;;;;;;16.23;52.10;100088.69;5033024;28;20131;-86
2022/05/12 04:42:53;;;;;;;11.02;7.30;;;;;;;16.42;51.39;100101.25;5047888;28;20060;-86
2022/05/12 04:45:21;;;;;;;12.07;8.13;;;;;;;16.50;51.75;100106.41;5033991;28;20021;-86
2022/05/12 04:47:46;;;;;;;11.32;7.60;;;;;;;15.31;51.41;99908.16;5051626;28;20032;-86
2022/05/12 04:50:16;;;;;;;14.07;7.68;;;;;;;15.77;51.63;99983.69;5051539;28;20025;-86
2022/05/12 04:52:42;;;;;;;8.18;7.35;;;;;;;16.25;51.19;100033.34;5033709;28;20460;-86
2022/05/12 04:55:08;;;;;;;9.75;7.15;;;;;;;16.52;51.41;100070.53;5033615;28;20062;-86
2022/05/12 04:57:38;;;;;;;10.73;7.70;;;;;;;15.61;51.44;99941.47;5051396;28;20021;-85
2022/05/12 05:00:07;;;;;;;13.23;7.50;;;;;;;16.82;51.30;100123.50;5050881;28;20064;-86
2022/05/12 05:02:32;;;;;;;11.15;7.78;;;;;;;16.80;51.18;100114.88;5051009;28;20017;-87
2022/05/12 05:04:58;;;;;;;9.02;7.00;;;;;;;15.99;51.45;99983.53;5054443;28;20082;-88
2022/05/12 05:07:26;;;;;;;10.50;7.80;;;;;;;16.32;51.63;100027.00;5036683;28;20028;-87
2022/05/12 05:09:51;;;;;;;12.07;7.22;;;;;;;16.73;51.70;100076.72;5054412;28;20017;-85
2022/05/12 05:12:17;;;;;;;9.27;7.20;;;;;;;16.38;51.13;100004.91;5054579;28;20047;-86
2022/05/12 05:14:42;;;;;;;11.77;8.18;;;;;;;16.14;51.16;99952.19;5054829;28;20035;-86
2022/05/12 05:17:09;;;;;;;11.10;7.43;;;;;;;16.59;51.16;100011.88;5054978;28;20025;-86
2022/05/12 05:19:35;;;;;;;9.10;8.02;;;;;;;17.16;51.33;100101.16;5036983;28;20032;-86
2022/05/12 05:22:01;;;;;;;10.20;7.47;;;;;;;16.70;51.01;99997.97;5054824;28;20032;-86
2022/05/12 05:24:26;;;;;;;8.80;7.90;;;;;;;17.11;51.09;100055.59;5054887;28;20021;-87
2022/05/12 05:26:52;;;;;;;9.93;8.30;;;;;;;17.04;51.22;100028.06;5054811;28;20020;-86
2022/05/12 05:29:17;;;;;;;9.38;7.88;;;;;;;17.67;51.38;100144.00;5055421;28;20104;-86
2022/05/12 05:31:42;;;;;;;11.20;9.13;;;;;;;17.51;51.08;100115.03;5054856;28;20021;-86
2022/05/12 05:34:09;;;;;;;10.57;8.48;;;;;;;16.71;50.91;99951.59;5054875;28;20172;-86
2022/05/12 05:36:35;;;;;;;11.20;7.97;;;;;;;17.33;50.86;100026.78;5054476;28;20048;-86
2022/05/12 05:39:01;;;;;;;8.95;7.97;;;;;;;18.01;50.67;100134.03;5054641;28;20049;-86
2022/05/12 05:41:26;;;;;;;11.38;8.45;;;;;;;17.75;50.71;100108.22;5047849;28;20112;-85
2022/05/12 05:43:53;;;;;;;13.25;8.10;;;;;;;17.58;50.70;100050.94;5051828;28;20025;-86
2022/05/12 05:46:18;;;;;;;11.18;8.32;;;;;;;17.73;50.63;100059.53;5034326;28;20395;-86
2022/05/12 05:48:46;;;;;;;11.63;8.15;;;;;;;17.98;50.60;100126.44;5052670;28;20062;-86
2022/05/12 05:53:56;;;;;;;10.57;7.30;;;;;;;17.92;50.46;100063.19;5052607;28;20032;-86
2022/05/12 05:56:21;;;;;;;9.35;7.70;;;;;;;18.46;50.28;100136.69;5054537;28;20025;-86
2022/05/12 05:58:47;;;;;;;10.32;8.63;;;;;;;17.65;50.32;100004.47;5054511;28;20027;-86
2022/05/12 06:01:12;;;;;;;10.60;7.55;;;;;;;18.08;49.95;100068.03;5051994;28;20029;-86
2022/05/12 06:03:39;;;;;;;11.43;8.10;;;;;;;18.52;50.16;100101.06;5053494;28;20416;-86
2022/05/12 06:06:05;;;;;;;11.10;7.85;;;;;;;17.88;49.85;99996.00;5035493;28;20037;-86
2022/05/12 06:08:31;;;;;;;12.85;7.43;;;;;;;18.50;49.84;100100.47;5053573;28;20468;-86
2022/05/12 06:10:59;;;;;;;8.23;5.95;;;;;;;17.99;49.30;100000.66;5054259;28;20430;-87
2022/05/12 06:13:24;;;;;;;8.50;6.45;;;;;;;17.05;48.66;99822.44;5053557;28;20108;-87
2022/05/12 06:15:50;;;;;;;7.22;5.85;;;;;;;18.15;48.55;100012.69;5034110;28;20064;-87
2022/05/12 06:18:17;;;;;;;9.25;6.18;;;;;;;18.55;48.07;100039.94;5049320;28;20037;-87
2022/05/12 06:20:44;;;;;;;5.72;5.22;;;;;;;19.16;47.88;100113.38;5035441;28;20064;-87
2022/05/12 06:23:11;;;;;;;5.80;5.07;;;;;;;18.87;47.73;100054.16;5053737;28;20021;-87
2022/05/12 06:25:38;;;;;;;7.60;5.45;;;;;;;19.20;47.47;100106.53;5054077;28;20064;-87
2022/05/12 06:28:05;;;;;;;6.93;5.40;;;;;;;19.16;47.34;100092.78;5053339;28;20025;-86
2022/05/12 06:30:30;;;;;;;6.85;5.45;;;;;;;18.71;47.27;100010.03;5049918;28;20075;-88
2022/05/12 06:32:56;;;;;;;7.40;6.22;;;;;;;19.12;47.07;100074.72;5022630;28;20021;-88
2022/05/12 06:35:24;;;;;;;7.65;5.57;;;;;;;19.19;47.12;100075.47;5053160;28;20486;-87
2022/05/12 06:37:50;;;;;;;7.25;6.10;;;;;;;18.44;47.17;99976.47;5035036;28;20442;-86
2022/05/12 06:40:17;;;;;;;12.55;8.80;;;;;;;19.66;47.03;100151.66;5052471;28;20045;-87
2022/05/12 06:42:43;;;;;;;9.75;8.75;;;;;;;19.03;46.82;100008.09;5035139;28;20160;-87
2022/05/12 06:45:16;;;;;;;9.90;7.15;;;;;;;19.05;46.84;100011.34;5052544;28;20031;-87
2022/05/12 06:47:51;;;;;;;14.43;7.80;;;;;;;18.96;46.80;99985.94;5035114;28;20017;-87
2022/05/12 06:50:25;;;;;;;8.40;6.22;;;;;;;19.38;46.66;100034.31;5046129;28;20362;-87
2022/05/12 06:52:53;;;;;;;7.97;7.00;;;;;;;19.30;46.64;100011.28;5028770;28;20025;-87
2022/05/12 06:55:20;;;;;;;9.48;7.15;;;;;;;18.91;46.38;99936.78;5041792;28;20025;-87
2022/05/12 06:57:45;;;;;;;8.13;7.00;;;;;;;20.12;46.59;100132.38;5032657;28;20025;-87
2022/05/12 07:00:16;;;;;;;14.65;13.18;;;;;;;19.40;46.62;99989.38;5024663;28;20028;-87
2022/05/12 07:02:45;;;;;;;8.30;7.50;;;;;;;20.13;46.76;100082.28;5050187;28;20021;-87
2022/05/12 07:05:12;;;;;;;8.88;7.38;;;;;;;20.23;46.45;100096.75;5052067;28;20021;-85
2022/05/12 07:07:38;;;;;;;10.40;7.28;;;;;;;20.05;46.70;100053.88;5050952;28;20021;-87
2022/05/12 07:10:05;;;;;;;7.07;6.28;;;;;;;20.24;46.50;100074.28;5041667;28;20108;-87
2022/05/12 07:12:30;;;;;;;7.03;5.75;;;;;;;19.84;46.34;100023.03;5043423;28;20079;-88
2022/05/12 07:14:56;;;;;;;9.48;8.27;;;;;;;20.54;46.62;100122.56;5034389;28;20545;-88
2022/05/12 07:17:22;;;;;;;8.07;7.10;;;;;;;20.35;46.71;100059.25;5025475;28;20494;-87
2022/05/12 07:19:48;;;;;;;9.63;6.35;;;;;;;20.27;46.10;100027.41;5053167;28;20417;-88
2022/05/12 07:27:41;;;;;;;10.15;6.72;;;;;;;20.01;45.85;99977.66;5032417;28;20411;-88
2022/05/12 07:30:07;;;;;;;10.32;8.75;;;;;;;19.39;45.90;99856.53;5032040;28;20061;-87
2022/05/12 07:32:33;;;;;;;10.98;9.50;;;;;;;20.96;45.97;100086.84;5048073;28;20036;-86
2022/05/12 07:34:58;;;;;;;5.97;5.38;;;;;;;21.10;45.45;100107.84;5031798;28;20079;-88
2022/05/12 07:37:24;;;;;;;7.88;7.07;;;;;;;20.40;45.09;99980.81;5031750;28;20508;-88
2022/05/12 07:39:49;;;;;;;9.20;8.25;;;;;;;20.92;44.62;100065.00;5031957;28;20045;-88
2022/05/12 07:42:15;;;;;;;7.28;6.00;;;;;;;20.57;44.53;100006.72;5013939;28;20430;-87
2022/05/12 07:44:40;;;;;;;6.68;5.57;;;;;;;21.13;44.54;100085.09;5014452;28;20026;-87
2022/05/12 07:47:09;;;;;;;9.20;7.05;;;;;;;20.79;44.58;100025.75;5032294;28;20513;-87
2022/05/12 07:49:36;;;;;;;8.68;7.63;;;;;;;21.46;44.36;100111.38;5032410;28;20207;-87
2022/05/12 07:52:07;;;;;;;6.68;5.43;;;;;;;21.24;43.94;100063.63;5032325;28;20555;-87
2022/05/12 07:54:34;;;;;;;8.50;7.20;;;;;;;21.00;44.04;100019.03;5032266;28;20029;-87
2022/05/12 07:57:00;;;;;;;9.77;5.85;;;;;;;21.63;43.92;100117.69;5032122;28;20036;-86
2022/05/12 07:59:29;;;;;;;11.27;8.60;;;;;;;21.37;43.92;100059.06;5031675;28;20636;-86
2022/05/12 08:01:58;;;;;;;6.95;5.45;;;;;;;21.30;43.87;100028.81;5031835;28;20029;-86
2022/05/12 08:04:24;;;;;;;8.82;7.53;;;;;;;20.86;43.85;99942.47;5031560;28;20029;-87
2022/05/12 08:06:50;;;;;;;8.68;7.70;;;;;;;21.27;43.59;100000.56;5014179;28;20025;-86
2022/05/12 08:09:15;;;;;;;8.15;7.10;;;;;;;21.27;43.33;99975.56;5031345;28;20028;-87
2022/05/12 08:11:41;;;;;;;6.55;5.88;;;;;;;21.95;43.07;100052.72;5031473;28;20029;-87
2022/05/12 08:14:06;;;;;;;6.68;6.07;;;;;;;21.16;42.92;99916.25;5033210;28;20038;-86
2022/05/12 08:16:33;;;;;;;7.22;6.07;;;;;;;22.59;42.79;100115.28;5051045;28;20021;-86
2022/05/12 08:18:58;;;;;;;8.45;7.57;;;;;;;22.19;42.83;100032.78;5032483;28;20028;-86
2022/05/12 08:21:24;;;;;;;7.10;5.93;;;;;;;22.22;42.40;100036.84;5013544;28;20018;-84
2022/05/12 08:23:50;;;;;;;7.20;6.50;;;;;;;22.16;42.27;100001.78;5031390;28;20080;-87
2022/05/12 08:26:16;;;;;;;6.10;4.88;;;;;;;22.58;41.89;100065.22;5013432;28;20108;-89
2022/05/12 08:28:42;;;;;;;7.65;5.43;;;;;;;22.33;41.72;100001.03;5031240;28;20498;-86
2022/05/12 08:31:08;;;;;;;6.00;5.32;;;;;;;23.11;41.30;100105.16;5038402;28;20035;-85
2022/05/12 08:33:34;;;;;;;6.78;4.40;;;;;;;22.96;40.84;100057.22;5039138;28;20493;-84
2022/05/12 08:36:00;;;;;;;5.82;5.22;;;;;;;23.29;40.86;100107.59;5050722;28;20083;-85
2022/05/12 08:38:25;;;;;;;13.02;11.73;;;;;;;22.73;40.56;99982.00;5052020;28;20045;-85
2022/05/12 08:41:03;;;;;;;9.88;8.10;;;;;;;23.63;40.39;100100.25;5053051;28;20043;-85
2022/05/12 08:43:51;;;;;;;5.95;5.30;;;;;;;23.17;40.07;100004.50;5044710;28;20549;-84
2022/05/12 08:46:21;;;;;;;10.63;9.25;;;;;;;23.38;40.06;100019.03;5055686;28;20025;-86
2022/05/12 08:48:48;;;;;;;10.63;9.48;;;;;;;23.29;39.70;99975.56;5055346;28;20025;-86
2022/05/12 08:51:17;;;;;;;16.77;5.55;;;;;;;23.70;39.43;100011.91;5052336;28;20025;-86
2022/05/12 08:54:02;;;;;;;7.72;6.90;;;;;;;23.94;39.21;100044.84;5035172;28;20494;-87
2022/05/12 08:56:28;;;;;;;7.28;5.28;;;;;;;23.71;39.03;99978.50;5035729;28;20022;-86
2022/05/12 08:58:56;;;;;;;6.68;5.65;;;;;;;24.60;39.21;100086.00;5039166;28;20469;-87
2022/05/12 09:01:36;;;;;;;6.97;4.22;;;;;;;24.68;38.49;100090.94;5055004;28;20193;-86
2022/05/12 09:04:21;;;;;;;12.57;11.18;;;;;;;24.83;38.50;100094.84;5054192;28;20060;-85
2022/05/12 09:06:52;;;;;;;6.20;4.80;;;;;;;24.97;37.94;100087.91;5055210;28;20033;-86
2022/05/12 09:09:23;;;;;;;5.13;4.50;;;;;;;23.79;37.37;99873.97;5042521;28;20665;-85
2022/05/12 09:11:57;;;;;;;;;;;;;;;25.26;37.87;100083.00;5053432;28;20072;-85
2022/05/12 09:14:42;;;;;;;12.40;7.80;;;;;;;25.59;36.84;100092.66;5054938;28;19977;-85
2022/05/12 09:17:12;;;;;;;10.00;8.65;;;;;;;25.68;36.47;100063.25;5054966;28;20033;-85
2022/05/12 09:19:38;;;;;;;9.30;8.02;;;;;;;23.94;36.08;99758.94;5054685;28;20060;-85
2022/05/12 09:22:03;;;;;;;11.05;9.82;;;;;;;25.90;35.11;100064.69;5055560;28;20029;-87
2022/05/12 09:24:29;;;;;;;6.65;5.07;;;;;;;25.68;34.65;100003.75;5058817;28;20033;-84
2022/05/12 09:27:13;;;;;;;10.10;6.63;;;;;;;26.45;33.96;100090.28;5055913;28;20067;-83
2022/05/12 09:29:49;;;;;;;6.88;5.47;;;;;;;26.60;33.72;100086.78;5061162;28;20033;-84
2022/05/12 09:32:24;;;;;;;7.00;4.50;;;;;;;25.88;32.83;99950.50;5035299;28;20030;-85
2022/05/12 09:35:08;;;;;;;6.20;5.60;;;;;;;27.09;32.50;100089.78;5041452;28;20536;-84
2022/05/12 09:37:36;;;;;;;4.85;4.35;;;;;;;26.91;32.11;100046.97;5040523;28;20028;-85
2022/05/12 09:40:18;;;;;;;8.07;3.80;;;;;;;27.23;30.42;100066.44;5033977;28;20049;-84
2022/05/12 09:42:47;;;;;;;4.57;3.97;;;;;;;27.50;31.18;100085.09;5032110;28;20038;-85
2022/05/12 09:45:21;;;;;;;8.93;3.95;;;;;;;27.74;29.47;100085.31;5033577;28;20029;-85
2022/05/12 09:47:46;;;;;;;4.57;3.47;;;;;;;27.51;29.71;100009.97;5033675;28;20027;-85
2022/05/12 09:50:21;;;;;;;4.45;3.10;;;;;;;28.14;28.98;100081.56;5049578;28;20037;-85
2022/05/12 09:52:55;;;;;;;4.18;3.53;;;;;;;28.40;28.77;100082.28;5041443;28;20032;-85
2022/05/12 09:55:27;;;;;;;4.55;3.55;;;;;;;28.57;28.88;100081.06;5046247;28;20060;-85
2022/05/12 09:58:04;;;;;;;6.50;4.30;;;;;;;28.74;28.56;100076.03;5052952;28;20033;-85
2022/05/12 10:01:02;;;;;;;7.20;4.15;;;;;;;28.88;27.57;100074.31;5039952;28;20021;-85
2022/05/12 10:09:27;;;;;;;11.07;9.52;;;;;;;29.22;26.21;100049.78;5053837;28;20068;-84
2022/05/12 10:12:00;;;;;;;7.97;4.80;;;;;;;29.46;26.68;100057.97;5026726;28;20041;-85
2022/05/12 10:14:59;;;;;;;7.60;5.30;;;;;;;29.37;25.75;100056.97;5040972;28;20100;-85
2022/05/12 10:17:45;;;;;;;4.75;3.60;;;;;;;29.49;24.49;100062.81;5056408;28;20093;-83
2022/05/12 10:20:18;;;;;;;3.33;3.03;;;;;;;29.51;25.50;100044.31;5056736;28;20063;-85
2022/05/12 10:23:04;;;;;;;7.07;4.35;;;;;;;29.81;24.27;100047.75;5054721;28;20460;-85
2022/05/12 10:25:56;;;;;;;4.63;3.10;;;;;;;29.95;24.94;100035.84;5051620;28;20078;-85
2022/05/12 10:29:00;;;;;;;6.55;4.53;;;;;;;30.21;23.41;100036.31;5050809;28;20421;-85
2022/05/12 10:31:45;;;;;;;5.82;3.92;;;;;;;30.19;24.38;100034.97;5033967;28;20059;-85
2022/05/12 10:34:37;;;;;;;8.15;5.22;;;;;;;30.02;23.98;100008.28;5042291;28;20490;-85
2022/05/12 10:37:21;;;;;;;;;;;;;;;30.16;24.54;100033.66;5048369;28;20394;-85
2022/05/12 10:40:12;;;;;;;6.93;4.50;;;;;;;30.29;24.64;100035.63;5051684;28;19931;-85
2022/05/12 10:43:14;;;;;;;13.02;10.48;;;;;;;30.61;24.12;100017.72;5051223;28;20033;-85
2022/05/12 10:45:48;;;;;;;6.80;3.58;;;;;;;30.81;23.40;100013.81;5048980;28;20080;-84
2022/05/12 10:48:52;;;;;;;7.07;5.88;;;;;;;30.98;22.45;100019.50;5019161;28;20108;-84
2022/05/12 10:51:36;;;;;;;5.65;4.25;;;;;;;30.93;21.81;100017.69;5040060;28;20049;-85
2022/05/12 10:54:06;;;;;;;5.22;3.58;;;;;;;30.85;22.54;100010.19;5034298;28;20021;-84
2022/05/12 10:56:59;;;;;;;6.65;5.07;;;;;;;30.55;22.04;99972.56;5022031;28;20112;-85
2022/05/12 10:59:30;;;;;;;4.28;3.70;;;;;;;30.85;22.92;100006.66;5043005;28;20029;-84
2022/05/12 11:02:09;;;;;;;9.15;8.23;;;;;;;30.85;23.47;100003.94;5031914;28;20029;-84
2022/05/12 11:04:38;;;;;;;4.45;4.00;;;;;;;30.91;23.22;99991.81;5041599;28;20421;-86
2022/05/12 11:07:15;;;;;;;6.57;3.65;;;;;;;29.94;22.88;99826.50;5047334;28;20037;-86
2022/05/12 11:09:57;;;;;;;7.30;4.88;;;;;;;31.18;22.74;99999.22;5051728;28;20100;-86
2022/05/12 11:12:55;;;;;;;5.00;4.50;;;;;;;31.48;21.66;100003.28;5033953;28;20488;-84
2022/05/12 11:15:27;;;;;;;10.02;9.07;;;;;;;31.24;22.88;99952.47;5030979;28;20579;-84
2022/05/12 11:18:04;;;;;;;6.03;5.43;;;;;;;31.54;23.18;99977.50;5049683;28;20090;-85
2022/05/12 11:20:42;;;;;;;7.63;5.68;;;;;;;31.72;23.34;99987.47;5032103;28;20037;-85
2022/05/12 11:24:00;;;;;;;21.48;19.33;;;;;;;31.41;23.15;99960.03;5050214;28;20036;-85
2022/05/12 11:26:45;;;;;;;8.43;6.50;;;;;;;31.37;22.35;99939.91;5014324;28;20037;-85
2022/05/12 11:29:44;;;;;;;14.63;11.70;;;;;;;31.66;22.47;99985.16;5051995;28;20036;-85
2022/05/12 11:32:21;;;;;;;6.10;5.13;;;;;;;31.75;22.43;99977.88;5049765;28;20417;-85
2022/05/12 11:35:01;;;;;;;6.95;6.28;;;;;;;31.77;22.41;99929.22;5050369;28;20403;-85
2022/05/12 11:37:53;;;;;;;5.57;5.05;;;;;;;32.12;22.29;99965.81;5016736;28;20036;-85
2022/05/12 11:40:40;;;;;;;11.20;9.75;;;;;;;32.29;22.14;99965.16;5013553;28;20072;-84
2022/05/12 11:46:25;;;;;;;8.13;6.30;;;;;;;32.34;21.61;99954.09;5042712;28;20040;-84
2022/05/12 11:49:01;;;;;;;7.13;6.43;;;;;;;32.33;21.82;99936.91;5030889;28;20119;-84
2022/05/12 11:51:41;;;;;;;6.38;4.80;;;;;;;32.30;21.76;99945.72;5048897;28;20100;-85
2022/05/12 11:54:13;;;;;;;6.30;4.18;;;;;;;31.94;21.90;99888.38;5045066;28;20409;-84
2022/05/12 11:56:46;;;;;;;5.55;4.28;;;;;;;32.34;21.78;99938.50;5032402;28;20059;-84
2022/05/12 11:59:26;;;;;;;7.53;5.57;;;;;;;32.50;21.64;99945.19;5050870;28;20497;-84
2022/05/12 12:01:59;;;;;;;4.25;3.08;;;;;;;32.59;21.58;99945.22;5045897;28;20057;-85